Time;durP1;ratioP1;P1;durP2;ratioP2;P2;SDS_P1;SDS_P2;PMS_P1;PMS_P2;Temp;Humidity;BMP_temperature;BMP_pressure;BME280_temperature;BME280_humidity;BME280_pressure;Samples;Min_cycle;Max_cycle;Signal;HPM_P1;HPM_P2
2021/04/10 00:01:57;;;;;;;15.57;6.10;;;7.80;91.40;;;;;;4993801;28;20069;-67
2021/04/10 00:04:23;;;;;;;14.15;7.45;;;7.80;91.30;;;;;;4994818;28;20081;-67
2021/04/10 00:06:48;;;;;;;18.50;6.20;;;7.80;91.30;;;;;;4994128;28;20025;-67
2021/04/10 00:09:14;;;;;;;14.13;5.68;;;7.70;91.20;;;;;;4994091;28;20450;-66
2021/04/10 00:11:39;;;;;;;17.85;6.10;;;7.70;91.20;;;;;;4994551;28;20022;-67
2021/04/10 00:14:07;;;;;;;16.13;6.63;;;7.70;91.30;;;;;;4992947;28;20117;-67
2021/04/10 00:16:33;;;;;;;26.73;16.50;;;7.70;91.40;;;;;;4992345;28;20027;-67
2021/04/10 00:18:59;;;;;;;19.30;7.10;;;7.70;91.40;;;;;;4994253;28;20030;-66
2021/04/10 00:21:24;;;;;;;19.30;7.18;;;7.60;91.50;;;;;;4994449;28;20022;-67
2021/04/10 00:23:50;;;;;;;21.17;7.20;;;7.60;91.50;;;;;;4993304;28;20026;-67
2021/04/10 00:26:15;;;;;;;19.00;6.95;;;7.60;91.60;;;;;;4994330;28;20502;-68
2021/04/10 00:28:41;;;;;;;11.38;5.50;;;7.50;91.60;;;;;;4994193;28;20608;-67
2021/04/10 00:31:07;;;;;;;14.40;5.10;;;7.50;91.60;;;;;;4993243;28;20027;-68
2021/04/10 00:33:41;;;;;;;13.02;4.78;;;7.40;91.60;;;;;;4994122;28;20134;-67
2021/04/10 00:36:08;;;;;;;11.85;5.03;;;7.40;91.60;;;;;;4993517;28;20071;-67
2021/04/10 00:38:35;;;;;;;16.25;5.68;;;7.50;91.50;;;;;;4993334;28;20022;-67
2021/04/10 00:41:03;;;;;;;13.07;4.65;;;7.40;91.50;;;;;;4993579;28;20467;-66
2021/04/10 00:43:28;;;;;;;12.70;7.00;;;7.40;91.50;;;;;;4994090;28;20022;-67
2021/04/10 00:45:54;;;;;;;12.63;4.43;;;7.40;91.40;;;;;;4991571;28;20022;-66
2021/04/10 00:48:20;;;;;;;16.88;4.85;;;7.40;91.50;;;;;;4993849;28;20099;-67
2021/04/10 00:50:47;;;;;;;11.80;4.80;;;7.40;91.60;;;;;;4993288;28;20080;-67
2021/04/10 00:53:15;;;;;;;13.20;6.78;;;7.40;91.50;;;;;;4993114;28;20080;-67
2021/04/10 00:55:44;;;;;;;23.38;5.40;;;7.40;91.40;;;;;;4992569;28;20474;-68
2021/04/10 00:58:10;;;;;;;11.38;4.38;;;7.30;91.40;;;;;;4991673;28;20470;-67
2021/04/10 01:00:36;;;;;;;15.30;4.80;;;7.20;91.40;;;;;;4993727;28;20149;-67
2021/04/10 01:03:02;;;;;;;15.50;4.68;;;7.20;91.50;;;;;;4993307;28;20018;-68
2021/04/10 01:05:28;;;;;;;14.40;4.95;;;7.20;91.50;;;;;;4991540;28;20469;-67
2021/04/10 01:07:54;;;;;;;13.43;4.85;;;7.30;91.50;;;;;;4993131;28;20028;-67
2021/04/10 01:10:21;;;;;;;11.00;4.43;;;7.20;91.50;;;;;;4993568;28;20029;-67
2021/04/10 01:13:21;;;;;;;10.43;4.30;;;7.20;91.50;;;;;;4992391;28;20030;-67
2021/04/10 01:16:03;;;;;;;12.40;4.38;;;7.20;91.40;;;;;;4993015;28;20034;-66
2021/04/10 01:18:46;;;;;;;9.40;4.10;;;7.30;91.50;;;;;;4992396;28;20046;-66
2021/04/10 01:21:42;;;;;;;10.23;4.05;;;7.30;91.50;;;;;;4992785;28;20497;-66
2021/04/10 01:24:20;;;;;;;13.50;4.07;;;7.20;91.50;;;;;;4993089;28;20030;-65
2021/04/10 01:27:06;;;;;;;15.55;5.07;;;7.30;91.50;;;;;;4992126;28;20026;-66
2021/04/10 01:29:49;;;;;;;11.60;4.05;;;7.30;91.50;;;;;;4991902;28;20121;-66
2021/04/10 01:32:16;;;;;;;20.33;4.90;;;7.30;91.50;;;;;;4993299;28;20133;-67
2021/04/10 01:34:51;;;;;;;11.07;4.22;;;7.30;91.60;;;;;;4992397;28;20089;-66
2021/04/10 01:37:25;;;;;;;12.63;4.53;;;7.30;91.60;;;;;;4992002;28;20130;-66
2021/04/10 01:39:51;;;;;;;20.15;5.78;;;7.30;91.50;;;;;;4992776;28;20117;-66
2021/04/10 01:42:22;;;;;;;20.73;4.55;;;7.30;91.50;;;;;;4992358;28;20049;-66
2021/04/10 01:44:50;;;;;;;13.57;4.45;;;7.30;91.50;;;;;;4991337;28;20452;-66
2021/04/10 01:47:17;;;;;;;11.88;4.25;;;7.30;91.50;;;;;;4992403;28;20061;-66
2021/04/10 01:49:45;;;;;;;10.98;4.35;;;7.30;91.50;;;;;;4991955;28;20101;-66
2021/04/10 01:52:12;;;;;;;13.82;5.00;;;7.30;91.40;;;;;;4992980;28;20036;-66
2021/04/10 01:54:38;;;;;;;19.50;5.53;;;7.30;91.40;;;;;;4992187;28;20471;-66
2021/04/10 01:57:04;;;;;;;11.05;4.07;;;7.30;91.40;;;;;;4991310;28;20121;-66
2021/04/10 01:59:31;;;;;;;14.70;4.53;;;7.20;91.50;;;;;;4991849;28;20031;-66
2021/04/10 02:01:58;;;;;;;16.20;5.22;;;7.20;91.50;;;;;;4990545;28;20383;-66
2021/04/10 02:04:25;;;;;;;10.38;4.30;;;7.20;91.60;;;;;;4992816;28;20058;-67
2021/04/10 02:06:51;;;;;;;14.73;12.52;;;7.20;91.60;;;;;;4992440;28;20050;-67
2021/04/10 02:09:19;;;;;;;14.07;5.32;;;7.20;91.50;;;;;;4992258;28;20475;-67
2021/04/10 02:11:49;;;;;;;12.70;4.50;;;7.10;91.50;;;;;;4991279;28;20018;-66
2021/04/10 02:14:16;;;;;;;10.43;4.57;;;7.20;91.70;;;;;;4992746;28;20030;-66
2021/04/10 02:16:42;;;;;;;13.98;4.32;;;7.20;91.60;;;;;;4991945;28;20030;-67
2021/04/10 02:19:08;;;;;;;14.07;4.28;;;7.20;91.70;;;;;;4992386;28;20027;-67
2021/04/10 02:21:37;;;;;;;13.98;5.03;;;7.10;91.60;;;;;;4992528;28;20026;-67
2021/04/10 02:24:02;;;;;;;13.15;4.53;;;7.10;91.60;;;;;;4991714;28;20028;-66
2021/04/10 02:26:29;;;;;;;9.95;4.65;;;7.10;91.60;;;;;;4992812;28;20019;-66
2021/04/10 02:28:58;;;;;;;11.90;4.50;;;7.00;91.70;;;;;;4991055;28;20026;-66
2021/04/10 02:31:52;;;;;;;12.63;4.80;;;6.90;91.80;;;;;;4991941;28;20026;-66
2021/04/10 02:34:27;;;;;;;15.25;5.20;;;6.90;91.90;;;;;;4992194;28;20049;-66
2021/04/10 02:36:55;;;;;;;12.25;4.65;;;6.80;92.00;;;;;;4991472;28;20479;-67
2021/04/10 02:39:22;;;;;;;9.18;4.35;;;6.70;92.00;;;;;;4992695;28;20090;-67
2021/04/10 02:41:51;;;;;;;14.27;6.00;;;6.70;92.10;;;;;;4991939;28;20513;-67
2021/04/10 02:44:22;;;;;;;15.38;5.25;;;6.70;92.20;;;;;;4991974;28;20022;-67
2021/04/10 02:46:50;;;;;;;11.35;4.93;;;6.60;92.30;;;;;;4990887;28;20065;-67
2021/04/10 02:49:22;;;;;;;14.52;4.85;;;6.70;92.40;;;;;;4992546;28;20042;-67
2021/04/10 02:51:55;;;;;;;10.52;4.55;;;6.60;92.40;;;;;;4989993;28;20448;-66
2021/04/10 02:54:24;;;;;;;17.30;8.77;;;6.70;92.50;;;;;;4992496;28;20038;-67
2021/04/10 02:57:01;;;;;;;13.00;5.60;;;6.70;92.50;;;;;;4991962;28;20053;-68
2021/04/10 02:59:28;;;;;;;15.98;6.07;;;6.70;92.50;;;;;;4993225;28;20046;-68
2021/04/10 03:01:55;;;;;;;14.48;5.43;;;6.60;92.60;;;;;;4995552;28;20027;-66
2021/04/10 03:04:20;;;;;;;11.38;5.75;;;6.60;92.60;;;;;;4996044;28;20022;-66
2021/04/10 03:06:47;;;;;;;17.90;5.68;;;6.50;92.80;;;;;;4994786;28;20031;-66
2021/04/10 03:09:12;;;;;;;9.02;4.38;;;6.50;92.80;;;;;;4995728;28;20382;-67
2021/04/10 03:11:39;;;;;;;13.20;5.85;;;6.50;92.80;;;;;;4995581;28;20101;-67
2021/04/10 03:14:05;;;;;;;11.02;4.70;;;6.40;92.90;;;;;;4994678;28;20046;-67
2021/04/10 03:16:32;;;;;;;12.32;5.03;;;6.40;93.00;;;;;;4994519;28;20022;-67
2021/04/10 03:18:59;;;;;;;14.57;7.93;;;6.40;93.00;;;;;;4994789;28;20026;-66
2021/04/10 03:21:26;;;;;;;16.42;5.65;;;6.30;93.00;;;;;;4995599;28;20029;-66
2021/04/10 03:23:52;;;;;;;12.27;4.90;;;6.30;93.10;;;;;;4995059;28;20114;-66
2021/04/10 03:26:19;;;;;;;16.15;5.32;;;6.20;93.10;;;;;;4993508;28;20113;-67
2021/04/10 03:28:45;;;;;;;12.23;5.28;;;6.20;93.20;;;;;;4995039;28;20041;-67
2021/04/10 03:31:11;;;;;;;10.85;5.47;;;6.20;93.30;;;;;;4995482;28;20026;-67
2021/04/10 03:33:37;;;;;;;12.95;4.65;;;6.20;93.30;;;;;;4993097;28;20328;-65
2021/04/10 03:36:05;;;;;;;16.33;6.00;;;6.20;93.30;;;;;;4994943;28;20025;-66
2021/04/10 03:38:32;;;;;;;12.85;5.90;;;6.30;93.40;;;;;;4995068;28;20031;-66
2021/04/10 03:40:59;;;;;;;11.77;5.28;;;6.30;93.30;;;;;;4994219;28;20105;-66
2021/04/10 03:43:24;;;;;;;10.52;5.20;;;6.30;93.30;;;;;;4995212;28;20026;-66
2021/04/10 03:45:50;;;;;;;16.58;6.03;;;6.30;93.20;;;;;;4994684;28;20033;-65
2021/04/10 03:48:17;;;;;;;11.27;5.32;;;6.30;93.20;;;;;;4990219;28;20058;-66
2021/04/10 03:50:44;;;;;;;25.40;12.68;;;6.30;93.10;;;;;;4995028;28;20531;-66
2021/04/10 03:53:10;;;;;;;12.07;5.63;;;6.40;93.10;;;;;;4994879;28;20038;-67
2021/04/10 03:55:35;;;;;;;14.25;7.80;;;6.30;93.10;;;;;;4994237;28;20022;-66
2021/04/10 03:58:03;;;;;;;11.45;5.40;;;6.30;93.10;;;;;;4994432;28;20026;-66
2021/04/10 04:00:29;;;;;;;14.73;5.30;;;6.40;93.10;;;;;;4994220;28;20023;-67
2021/04/10 04:02:55;;;;;;;16.65;5.97;;;6.50;93.00;;;;;;4993639;28;20459;-65
2021/04/10 04:05:21;;;;;;;12.98;6.20;;;6.50;92.90;;;;;;4994518;28;20085;-65
2021/04/10 04:07:46;;;;;;;12.50;5.30;;;6.50;92.90;;;;;;4994115;28;20034;-66
2021/04/10 04:10:12;;;;;;;14.52;7.03;;;6.50;92.90;;;;;;4993669;28;20117;-66
2021/04/10 04:12:37;;;;;;;16.65;7.10;;;6.50;92.80;;;;;;4994084;28;20026;-66
2021/04/10 04:15:04;;;;;;;11.25;5.70;;;6.60;92.80;;;;;;4994270;28;20030;-66
2021/04/10 04:17:30;;;;;;;17.13;6.75;;;6.60;92.80;;;;;;4994236;28;20022;-66
2021/04/10 04:19:55;;;;;;;14.88;7.35;;;6.70;92.70;;;;;;4994308;28;20126;-66
2021/04/10 04:22:21;;;;;;;12.25;6.10;;;6.80;92.70;;;;;;4994612;28;20178;-66
2021/04/10 04:24:46;;;;;;;11.80;6.50;;;6.80;92.70;;;;;;4993337;28;20069;-66
2021/04/10 04:27:12;;;;;;;13.25;6.43;;;6.80;92.60;;;;;;4993052;28;20038;-66
2021/04/10 04:29:37;;;;;;;16.10;7.28;;;6.80;92.60;;;;;;4994146;28;20030;-64
2021/04/10 04:32:03;;;;;;;14.43;6.68;;;6.80;92.50;;;;;;4993069;28;20154;-66
2021/04/10 04:34:29;;;;;;;18.55;6.60;;;6.70;92.50;;;;;;4994191;28;20078;-66
2021/04/10 04:36:54;;;;;;;14.85;6.20;;;6.70;92.40;;;;;;4993552;28;20050;-66
2021/04/10 04:39:20;;;;;;;13.57;6.93;;;6.70;92.50;;;;;;4993771;28;20106;-66
2021/04/10 04:41:45;;;;;;;11.57;5.78;;;6.70;92.50;;;;;;4993520;28;20018;-66
2021/04/10 04:44:11;;;;;;;16.83;6.13;;;6.70;92.50;;;;;;4994245;28;20117;-66
2021/04/10 04:46:36;;;;;;;11.98;6.30;;;6.70;92.30;;;;;;4993494;28;20435;-66
2021/04/10 04:49:02;;;;;;;9.98;5.70;;;6.70;92.30;;;;;;4993463;28;20050;-65
2021/04/10 04:51:28;;;;;;;10.35;5.75;;;6.70;92.30;;;;;;4993289;28;20030;-66
2021/04/10 04:53:53;;;;;;;14.90;6.78;;;6.70;92.20;;;;;;4993278;28;20041;-66
2021/04/10 04:56:19;;;;;;;11.82;5.70;;;6.70;92.20;;;;;;4992552;28;20069;-65
2021/04/10 04:58:44;;;;;;;16.02;6.40;;;6.80;92.20;;;;;;4992715;28;20042;-65
2021/04/10 05:01:10;;;;;;;15.90;5.57;;;6.80;92.10;;;;;;4993745;28;20022;-66
2021/04/10 05:03:35;;;;;;;7.55;4.82;;;6.80;92.00;;;;;;4993569;28;20100;-66
2021/04/10 05:06:01;;;;;;;13.77;5.60;;;6.90;91.90;;;;;;4992465;28;20478;-66
2021/04/10 05:08:26;;;;;;;15.15;5.60;;;6.90;92.00;;;;;;4993530;28;20018;-66
2021/04/10 05:10:52;;;;;;;11.10;6.70;;;6.90;91.80;;;;;;4993170;28;20026;-66
2021/04/10 05:13:17;;;;;;;19.38;8.93;;;6.90;91.80;;;;;;4992727;28;20022;-66
2021/04/10 05:15:44;;;;;;;16.65;6.78;;;6.90;91.80;;;;;;4993394;28;20029;-66
2021/04/10 05:18:10;;;;;;;14.85;5.93;;;6.90;91.70;;;;;;4993330;28;20033;-66
2021/04/10 05:20:35;;;;;;;12.00;5.30;;;6.80;91.70;;;;;;4992624;28;20026;-67
2021/04/10 05:23:01;;;;;;;15.27;6.30;;;6.80;91.70;;;;;;4992959;28;20034;-65
2021/04/10 05:25:26;;;;;;;14.50;5.80;;;6.80;91.70;;;;;;4993343;28;20060;-66
2021/04/10 05:27:52;;;;;;;14.80;6.15;;;6.80;91.60;;;;;;4992094;28;20026;-65
2021/04/10 05:30:19;;;;;;;11.95;5.28;;;6.90;91.60;;;;;;4993282;28;20036;-66
2021/04/10 05:32:44;;;;;;;17.35;6.45;;;6.90;91.60;;;;;;4992456;28;20402;-65
2021/04/10 05:35:11;;;;;;;14.90;6.90;;;6.90;91.50;;;;;;4990771;28;20058;-64
2021/04/10 05:37:37;;;;;;;14.80;5.85;;;6.90;91.60;;;;;;4992978;28;20022;-65
2021/04/10 05:40:06;;;;;;;19.75;5.68;;;6.90;91.50;;;;;;4993099;28;20101;-66
2021/04/10 05:42:32;;;;;;;13.48;5.35;;;6.90;91.40;;;;;;4992399;28;20015;-67
2021/04/10 05:44:57;;;;;;;19.30;5.82;;;7.00;91.40;;;;;;4991516;28;20525;-66
2021/04/10 05:47:23;;;;;;;11.23;5.45;;;7.00;91.20;;;;;;4992864;28;20097;-66
2021/04/10 05:49:50;;;;;;;15.25;5.47;;;7.00;91.10;;;;;;4991978;28;20022;-66
2021/04/10 05:52:15;;;;;;;15.50;4.65;;;7.00;90.80;;;;;;4992909;28;20026;-65
2021/04/10 05:54:41;;;;;;;19.75;5.78;;;7.00;90.80;;;;;;4992159;28;20470;-65
2021/04/10 05:57:06;;;;;;;12.77;4.50;;;7.10;90.70;;;;;;4992516;28;20034;-65
2021/04/10 05:59:32;;;;;;;13.00;4.53;;;7.20;90.40;;;;;;4993006;28;20402;-66
2021/04/10 06:01:57;;;;;;;14.38;4.10;;;7.20;90.20;;;;;;4991905;28;20037;-65
2021/04/10 06:04:23;;;;;;;15.13;4.30;;;7.30;90.20;;;;;;4992715;28;20060;-66
2021/04/10 06:06:48;;;;;;;13.65;4.30;;;7.30;90.00;;;;;;4991498;28;20019;-66
2021/04/10 06:09:14;;;;;;;10.63;4.57;;;7.40;89.70;;;;;;4990473;28;20033;-67
2021/04/10 06:11:40;;;;;;;11.27;4.00;;;7.40;89.50;;;;;;4992866;28;20029;-66
2021/04/10 06:14:05;;;;;;;10.90;4.88;;;7.50;89.60;;;;;;4990519;28;20120;-67
2021/04/10 06:16:31;;;;;;;18.88;6.95;;;7.50;89.40;;;;;;4991893;28;20026;-66
2021/04/10 06:18:57;;;;;;;10.25;4.93;;;7.60;88.90;;;;;;4992233;28;20029;-66
2021/04/10 06:21:22;;;;;;;12.90;5.32;;;7.50;88.80;;;;;;4992591;28;20030;-66
2021/04/10 06:23:48;;;;;;;15.80;6.22;;;7.50;89.00;;;;;;4990392;28;20034;-67
2021/04/10 06:26:14;;;;;;;15.35;5.43;;;7.60;89.30;;;;;;4992632;28;20022;-67
2021/04/10 06:28:40;;;;;;;9.50;4.70;;;7.60;88.80;;;;;;4992526;28;20109;-66
2021/04/10 06:31:06;;;;;;;14.13;5.47;;;7.70;89.00;;;;;;4991803;28;20050;-67
2021/04/10 06:33:31;;;;;;;12.68;5.00;;;7.70;89.00;;;;;;4992534;28;20502;-66
2021/04/10 06:35:57;;;;;;;13.23;5.50;;;7.80;88.70;;;;;;4995831;28;20030;-66
2021/04/10 06:38:22;;;;;;;13.95;4.97;;;7.80;88.40;;;;;;4995727;28;20061;-66
2021/04/10 06:40:48;;;;;;;11.27;4.28;;;7.90;88.30;;;;;;4994643;28;20022;-66
2021/04/10 06:43:15;;;;;;;13.25;5.82;;;7.90;88.00;;;;;;4995021;28;20343;-67
2021/04/10 06:45:41;;;;;;;9.82;4.30;;;8.00;88.50;;;;;;4994135;28;20034;-66
2021/04/10 06:48:13;;;;;;;9.05;4.50;;;8.10;87.40;;;;;;4995627;28;20042;-66
2021/04/10 06:50:40;;;;;;;13.27;4.68;;;8.00;87.00;;;;;;4994758;28;20022;-66
2021/04/10 06:53:07;;;;;;;13.20;4.93;;;8.00;87.00;;;;;;4993824;28;20038;-66
2021/04/10 06:55:36;;;;;;;10.80;4.47;;;8.00;87.00;;;;;;4995980;28;20374;-67
2021/04/10 06:58:03;;;;;;;10.75;4.18;;;8.10;87.30;;;;;;4994968;28;20094;-67
2021/04/10 07:00:29;;;;;;;11.77;4.22;;;8.20;87.40;;;;;;4996030;28;20383;-67
2021/04/10 07:03:00;;;;;;;8.48;4.35;;;8.30;87.00;;;;;;4994310;28;20023;-67
2021/04/10 07:05:26;;;;;;;8.43;3.97;;;8.40;86.60;;;;;;4995164;28;20490;-67
2021/04/10 07:07:52;;;;;;;12.02;4.20;;;8.40;85.30;;;;;;4994047;28;20149;-67
2021/04/10 07:10:19;;;;;;;13.02;4.22;;;8.40;85.40;;;;;;4994562;28;20497;-66
2021/04/10 07:12:45;;;;;;;8.80;3.58;;;8.40;85.40;;;;;;4994582;28;20479;-66
2021/04/10 07:15:13;;;;;;;15.18;6.25;;;8.40;84.80;;;;;;4995848;28;20038;-66
2021/04/10 07:17:40;;;;;;;11.88;4.10;;;8.50;84.50;;;;;;4995428;28;20030;-67
2021/04/10 07:20:25;;;;;;;8.45;3.30;;;8.50;84.30;;;;;;4994582;28;20030;-67
2021/04/10 07:23:10;;;;;;;9.68;4.22;;;8.50;84.50;;;;;;4995075;28;20031;-67
2021/04/10 07:25:38;;;;;;;11.30;4.10;;;8.50;84.20;;;;;;4994838;28;20470;-66
2021/04/10 07:28:24;;;;;;;11.45;3.97;;;8.50;84.50;;;;;;4992451;28;20478;-67
2021/04/10 07:30:58;;;;;;;8.23;3.65;;;8.60;84.80;;;;;;4993741;28;20061;-66
2021/04/10 07:33:25;;;;;;;10.82;4.35;;;8.60;84.60;;;;;;4997616;28;20038;-66
2021/04/10 07:35:51;;;;;;;9.45;4.53;;;8.60;83.90;;;;;;4994665;28;20494;-66
2021/04/10 07:38:30;;;;;;;8.32;4.03;;;8.70;84.00;;;;;;4993420;28;20116;-66
2021/04/10 07:40:57;;;;;;;10.02;3.47;;;8.70;83.70;;;;;;4994281;28;20083;-66
2021/04/10 07:43:27;;;;;;;11.23;3.95;;;8.80;83.80;;;;;;4995149;28;20109;-65
2021/04/10 07:46:12;;;;;;;9.10;3.53;;;8.90;83.80;;;;;;4992264;28;20030;-67
2021/04/10 07:48:39;;;;;;;12.05;3.53;;;9.00;82.00;;;;;;4992906;28;20043;-65
2021/04/10 07:51:14;;;;;;;9.80;3.72;;;9.00;82.20;;;;;;4994632;28;20502;-66
2021/04/10 07:53:40;;;;;;;7.63;2.97;;;9.10;81.90;;;;;;4993579;28;20038;-66
2021/04/10 07:56:08;;;;;;;9.10;3.55;;;9.20;81.60;;;;;;4993556;28;20076;-66
2021/04/10 07:58:35;;;;;;;10.18;3.22;;;9.30;81.60;;;;;;4994524;28;20106;-65
2021/04/10 08:01:03;;;;;;;10.40;4.82;;;9.50;81.30;;;;;;4975101;28;20073;-66
2021/04/10 08:03:34;;;;;;;8.30;2.90;;;9.70;80.20;;;;;;4973614;28;20459;-66
2021/04/10 08:06:06;;;;;;;11.65;3.88;;;9.80;79.80;;;;;;4975015;28;20467;-66
2021/04/10 08:08:44;;;;;;;9.48;3.42;;;9.90;80.00;;;;;;4974568;28;20756;-66
2021/04/10 08:11:10;;;;;;;9.48;3.33;;;10.00;79.10;;;;;;4993351;28;20030;-66
2021/04/10 08:13:35;;;;;;;8.88;3.45;;;10.00;79.00;;;;;;4994469;28;20045;-67
2021/04/10 08:16:13;;;;;;;8.27;3.10;;;9.90;79.70;;;;;;4993362;28;20018;-67
2021/04/10 08:18:53;;;;;;;8.13;2.90;;;10.00;79.40;;;;;;4994241;28;20042;-67
2021/04/10 08:21:21;;;;;;;10.00;3.38;;;10.00;79.50;;;;;;4994216;28;20049;-67
2021/04/10 08:23:48;;;;;;;11.60;3.22;;;10.00;78.70;;;;;;4993106;28;20122;-67
2021/04/10 08:26:15;;;;;;;12.18;3.10;;;10.00;78.60;;;;;;4994366;28;20025;-70
2021/04/10 08:28:41;;;;;;;7.70;2.95;;;10.00;79.00;;;;;;4994276;28;20031;-68
2021/04/10 08:31:07;;;;;;;12.27;3.50;;;10.10;79.00;;;;;;4993439;28;20050;-67
2021/04/10 08:33:33;;;;;;;9.52;3.08;;;10.30;78.90;;;;;;4993823;28;20112;-66
2021/04/10 08:36:06;;;;;;;6.70;2.95;;;10.50;77.50;;;;;;4974503;28;20038;-67
2021/04/10 08:38:33;;;;;;;11.65;3.78;;;10.60;77.40;;;;;;4977861;28;20022;-66
2021/04/10 08:41:03;;;;;;;9.25;4.30;;;10.70;76.80;;;;;;4993755;28;20034;-68
2021/04/10 08:43:30;;;;;;;14.65;4.13;;;10.80;77.00;;;;;;4992954;28;20031;-68
2021/04/10 08:45:58;;;;;;;11.27;3.55;;;11.00;77.00;;;;;;4993614;28;20114;-67
2021/04/10 08:48:24;;;;;;;9.13;3.15;;;11.10;76.70;;;;;;4993421;28;20093;-67
2021/04/10 08:50:52;;;;;;;10.90;3.45;;;11.20;75.70;;;;;;4991636;28;20058;-69
2021/04/10 08:53:22;;;;;;;9.13;3.10;;;11.30;75.70;;;;;;4992411;28;20030;-66
2021/04/10 08:55:50;;;;;;;9.82;3.10;;;11.40;74.60;;;;;;4991933;28;20065;-67
2021/04/10 08:58:20;;;;;;;9.25;3.38;;;11.40;74.70;;;;;;4992726;28;20041;-68
2021/04/10 09:00:52;;;;;;;9.80;3.47;;;11.50;74.90;;;;;;4993181;28;20542;-68
2021/04/10 09:03:18;;;;;;;9.20;3.00;;;11.70;74.10;;;;;;4994183;28;20014;-68
2021/04/10 09:05:52;;;;;;;10.15;3.38;;;11.80;73.80;;;;;;4991156;28;20481;-67
2021/04/10 09:08:27;;;;;;;11.55;3.83;;;11.90;73.10;;;;;;4992958;28;20490;-68
2021/04/10 09:10:55;;;;;;;11.55;3.03;;;12.00;72.80;;;;;;4993140;28;20066;-66
2021/04/10 09:13:20;;;;;;;10.15;3.78;;;12.10;72.20;;;;;;4991306;28;20027;-67
2021/04/10 09:15:46;;;;;;;14.10;4.30;;;12.20;72.20;;;;;;4992605;28;20577;-66
2021/04/10 09:18:14;;;;;;;12.32;3.42;;;12.40;71.90;;;;;;4993346;28;20026;-66
2021/04/10 09:20:45;;;;;;;12.93;3.67;;;12.50;71.10;;;;;;4992619;28;20495;-66
2021/04/10 09:23:30;;;;;;;13.13;4.28;;;12.60;70.70;;;;;;4993544;28;20427;-68
2021/04/10 09:26:07;;;;;;;7.32;2.92;;;12.50;68.60;;;;;;4992006;28;20034;-66
2021/04/10 09:28:33;;;;;;;9.43;2.72;;;12.40;68.60;;;;;;4993042;28;20042;-67
2021/04/10 09:31:00;;;;;;;9.52;2.97;;;12.20;69.50;;;;;;4992813;28;20026;-66
2021/04/10 09:33:29;;;;;;;8.00;3.35;;;12.10;70.60;;;;;;4992643;28;20141;-67
2021/04/10 09:35:55;;;;;;;10.77;3.50;;;12.00;70.90;;;;;;4992467;28;20482;-65
2021/04/10 09:38:45;;;;;;;11.43;3.15;;;12.00;71.20;;;;;;4992611;28;20034;-67
2021/04/10 09:41:11;;;;;;;11.77;3.60;;;12.00;71.20;;;;;;4992836;28;20038;-66
2021/04/10 09:44:06;;;;;;;8.73;3.42;;;11.90;71.10;;;;;;4992938;28;20035;-68
2021/04/10 09:46:33;;;;;;;11.43;4.20;;;11.80;72.10;;;;;;4992404;28;20018;-69
2021/04/10 09:48:59;;;;;;;9.82;3.58;;;11.70;72.20;;;;;;4991945;28;20042;-69
2021/04/10 09:51:24;;;;;;;7.13;3.50;;;11.70;72.70;;;;;;4991742;28;20023;-68
2021/04/10 09:53:50;;;;;;;8.18;3.85;;;11.70;72.60;;;;;;4991577;28;20046;-68
2021/04/10 09:56:17;;;;;;;11.65;3.30;;;11.70;72.80;;;;;;4991553;28;20014;-67
2021/04/10 09:58:46;;;;;;;11.68;3.97;;;11.70;72.80;;;;;;4991720;28;20023;-67
2021/04/10 10:01:16;;;;;;;8.20;3.60;;;11.80;72.00;;;;;;4991027;28;20022;-67
2021/04/10 10:03:42;;;;;;;9.73;3.58;;;11.80;72.00;;;;;;4992422;28;20491;-66
2021/04/10 10:06:24;;;;;;;10.63;3.90;;;11.70;71.90;;;;;;4991145;28;20018;-67
2021/04/10 10:08:50;;;;;;;10.80;3.42;;;11.60;71.80;;;;;;4992061;28;20475;-66
2021/04/10 10:11:16;;;;;;;8.77;3.25;;;11.50;72.50;;;;;;4996878;28;20019;-66
2021/04/10 10:13:43;;;;;;;8.45;3.10;;;11.50;72.40;;;;;;4996602;28;20030;-68
2021/04/10 10:16:09;;;;;;;9.70;3.40;;;11.40;72.70;;;;;;4994679;28;20034;-66
2021/04/10 10:18:42;;;;;;;10.52;3.20;;;11.30;72.10;;;;;;4995849;28;20030;-67
2021/04/10 10:21:13;;;;;;;8.73;3.30;;;11.20;72.90;;;;;;4993540;28;20129;-67
2021/04/10 10:23:48;;;;;;;9.25;3.53;;;11.20;73.20;;;;;;4994512;28;20062;-67
2021/04/10 10:26:25;;;;;;;8.82;3.90;;;11.10;73.10;;;;;;4994730;28;20026;-68
2021/04/10 10:28:57;;;;;;;8.82;3.78;;;11.10;72.90;;;;;;4993390;28;20038;-65
2021/04/10 10:31:29;;;;;;;7.75;3.50;;;11.10;73.20;;;;;;4993380;28;20018;-67
2021/04/10 10:34:03;;;;;;;11.85;4.35;;;11.10;73.30;;;;;;4994349;28;20085;-67
2021/04/10 10:36:36;;;;;;;12.45;4.35;;;11.00;73.40;;;;;;4995770;28;20102;-66
2021/04/10 10:39:07;;;;;;;10.23;4.10;;;11.00;74.30;;;;;;4995778;28;20077;-68
2021/04/10 10:41:45;;;;;;;9.77;3.97;;;11.10;75.30;;;;;;4995572;28;20026;-67
2021/04/10 10:44:12;;;;;;;8.35;3.80;;;11.20;75.30;;;;;;4994589;28;20019;-67
2021/04/10 10:46:38;;;;;;;9.48;4.20;;;11.20;74.60;;;;;;4996110;28;20026;-68
2021/04/10 10:49:08;;;;;;;13.70;4.05;;;11.20;74.80;;;;;;4995805;28;20105;-68
2021/04/10 10:51:40;;;;;;;9.05;3.65;;;11.10;74.70;;;;;;4995378;28;20053;-68
2021/04/10 10:54:06;;;;;;;8.10;3.75;;;11.00;76.10;;;;;;4995547;28;20578;-68
2021/04/10 10:56:33;;;;;;;10.68;3.65;;;11.00;77.30;;;;;;4995993;28;20121;-67
2021/04/10 10:59:04;;;;;;;10.32;3.63;;;11.00;76.50;;;;;;4993736;28;20018;-67
2021/04/10 11:01:38;;;;;;;11.48;4.53;;;11.10;77.70;;;;;;4994502;28;20030;-67
2021/04/10 11:04:17;;;;;;;12.70;5.22;;;11.10;76.80;;;;;;4995093;28;20030;-67
2021/04/10 11:06:47;;;;;;;11.65;5.13;;;11.00;76.70;;;;;;4995698;28;20084;-67
2021/04/10 11:09:34;;;;;;;13.40;4.57;;;11.10;77.40;;;;;;4995879;28;20037;-68
2021/04/10 11:12:04;;;;;;;11.07;4.15;;;11.00;78.80;;;;;;4994973;28;20096;-67
2021/04/10 11:14:32;;;;;;;12.30;4.82;;;11.00;79.00;;;;;;4995721;28;20113;-68
2021/04/10 11:17:01;;;;;;;15.20;5.05;;;11.00;78.60;;;;;;4992702;28;20061;-67
2021/04/10 11:19:35;;;;;;;8.77;4.72;;;11.00;80.10;;;;;;4994478;28;20053;-67
2021/04/10 11:22:02;;;;;;;8.90;4.38;;;11.10;80.30;;;;;;4995081;28;20375;-69
2021/04/10 11:24:42;;;;;;;16.90;5.68;;;11.10;79.90;;;;;;4995527;28;20424;-69
2021/04/10 11:27:18;;;;;;;10.95;4.90;;;11.20;79.50;;;;;;4993816;28;20027;-66
2021/04/10 11:29:52;;;;;;;14.68;5.65;;;11.10;80.10;;;;;;4975753;28;20114;-68
2021/04/10 11:32:20;;;;;;;12.25;6.05;;;11.10;80.30;;;;;;4982248;28;20019;-67
2021/04/10 11:34:49;;;;;;;11.05;5.38;;;11.10;80.70;;;;;;4994674;28;20431;-69
2021/04/10 11:37:27;;;;;;;17.23;7.82;;;11.20;80.20;;;;;;4995319;28;20034;-68
2021/04/10 11:40:04;;;;;;;13.50;7.18;;;11.00;80.20;;;;;;4993038;28;20463;-68
2021/04/10 11:42:49;;;;;;;14.65;6.80;;;11.00;80.70;;;;;;4995232;28;20015;-67
2021/04/10 11:45:37;;;;;;;16.73;7.55;;;10.90;80.60;;;;;;4995068;28;20105;-66
2021/04/10 11:48:15;;;;;;;15.93;8.10;;;10.80;82.50;;;;;;4994087;28;20046;-67
2021/04/10 11:50:51;;;;;;;18.52;8.68;;;10.70;82.60;;;;;;4985183;28;20026;-68
2021/04/10 11:53:24;;;;;;;15.52;8.95;;;10.70;83.20;;;;;;4992722;28;20274;-71
2021/04/10 11:55:50;;;;;;;14.00;8.70;;;10.60;83.90;;;;;;4993935;28;20026;-71
2021/04/10 11:58:37;;;;;;;18.35;9.93;;;10.60;84.60;;;;;;4993811;28;20022;-70
2021/04/10 12:01:08;;;;;;;16.15;10.02;;;10.70;85.00;;;;;;4992234;28;20030;-70
2021/04/10 12:03:53;;;;;;;16.00;11.93;;;10.80;85.20;;;;;;4993515;28;20023;-69
2021/04/10 12:06:33;;;;;;;17.15;12.00;;;10.80;85.30;;;;;;4990402;28;20386;-67
2021/04/10 12:09:10;;;;;;;20.98;13.85;;;10.80;84.40;;;;;;4991187;28;20093;-70
2021/04/10 12:11:37;;;;;;;20.52;12.73;;;10.70;84.90;;;;;;4994156;28;20475;-67
2021/04/10 12:14:04;;;;;;;19.30;12.93;;;10.70;84.60;;;;;;4991345;28;20398;-69
2021/04/10 12:16:30;;;;;;;19.25;14.10;;;10.60;84.10;;;;;;4992532;28;20023;-70
2021/04/10 12:18:56;;;;;;;25.00;15.40;;;10.50;84.50;;;;;;4993227;28;20128;-70
2021/04/10 12:21:21;;;;;;;20.88;15.02;;;10.50;85.60;;;;;;4994095;28;20018;-70
2021/04/10 12:23:47;;;;;;;21.52;15.27;;;10.50;85.70;;;;;;4992863;28;20030;-70
2021/04/10 12:26:12;;;;;;;20.55;14.68;;;10.50;86.20;;;;;;4993798;28;20022;-68
2021/04/10 12:28:38;;;;;;;18.90;13.70;;;10.50;85.70;;;;;;4992896;28;20085;-68
2021/04/10 12:31:09;;;;;;;18.50;13.95;;;10.50;85.90;;;;;;4993546;28;20026;-67
2021/04/10 12:33:36;;;;;;;25.52;15.88;;;10.60;86.60;;;;;;4993002;28;20357;-67
2021/04/10 12:36:01;;;;;;;19.42;15.00;;;10.70;86.70;;;;;;4992813;28;20348;-68
2021/04/10 12:38:27;;;;;;;20.38;15.60;;;10.70;86.50;;;;;;4993290;28;20038;-68
2021/04/10 12:40:52;;;;;;;25.65;17.42;;;10.70;86.70;;;;;;4993608;28;20030;-68
2021/04/10 12:43:18;;;;;;;19.73;15.15;;;10.60;86.70;;;;;;4992707;28;20095;-70
2021/04/10 12:45:44;;;;;;;20.13;14.23;;;10.60;87.50;;;;;;4992801;28;20026;-68
2021/04/10 12:48:09;;;;;;;19.88;12.57;;;10.50;88.30;;;;;;4992565;28;20511;-68
2021/04/10 12:50:35;;;;;;;18.25;12.30;;;10.50;88.20;;;;;;4992756;28;20054;-69
2021/04/10 12:53:01;;;;;;;19.48;12.73;;;10.40;88.00;;;;;;4991416;28;20478;-68
2021/04/10 12:55:28;;;;;;;20.13;14.73;;;10.30;88.30;;;;;;4993223;28;20042;-70